sensor_id;sensor_type;location;lat;lon;timestamp;P1;durP1;ratioP1;P2;durP2;ratioP2
14883;SDS011;7534;50.762;7.000;2022-08-19T00:01:33;11.55;;;10.48;;
14883;SDS011;7534;50.762;7.000;2022-08-19T00:04:03;11.23;;;10.13;;
14883;SDS011;7534;50.762;7.000;2022-08-19T00:06:33;11.43;;;10.32;;
14883;SDS011;7534;50.762;7.000;2022-08-19T00:09:02;11.52;;;10.38;;
14883;SDS011;7534;50.762;7.000;2022-08-19T00:11:31;10.27;;;9.18;;
14883;SDS011;7534;50.762;7.000;2022-08-19T00:13:59;10.82;;;9.77;;
14883;SDS011;7534;50.762;7.000;2022-08-19T00:16:25;10.82;;;9.82;;
14883;SDS011;7534;50.762;7.000;2022-08-19T00:18:51;11.77;;;10.57;;
14883;SDS011;7534;50.762;7.000;2022-08-19T00:21:16;10.98;;;9.98;;
14883;SDS011;7534;50.762;7.000;2022-08-19T00:23:42;11.13;;;10.02;;
14883;SDS011;7534;50.762;7.000;2022-08-19T00:26:09;10.35;;;9.45;;
14883;SDS011;7534;50.762;7.000;2022-08-19T00:28:36;12.73;;;9.85;;
14883;SDS011;7534;50.762;7.000;2022-08-19T00:31:03;11.05;;;9.95;;
14883;SDS011;7534;50.762;7.000;2022-08-19T00:33:30;10.43;;;9.25;;
14883;SDS011;7534;50.762;7.000;2022-08-19T00:35:57;12.07;;;9.32;;
14883;SDS011;7534;50.762;7.000;2022-08-19T00:38:31;10.18;;;9.27;;
14883;SDS011;7534;50.762;7.000;2022-08-19T00:40:58;10.43;;;9.07;;
14883;SDS011;7534;50.762;7.000;2022-08-19T00:43:25;9.95;;;9.05;;
14883;SDS011;7534;50.762;7.000;2022-08-19T00:45:53;10.75;;;9.75;;
14883;SDS011;7534;50.762;7.000;2022-08-19T00:48:19;10.60;;;9.50;;
14883;SDS011;7534;50.762;7.000;2022-08-19T00:50:48;11.13;;;9.88;;
14883;SDS011;7534;50.762;7.000;2022-08-19T00:53:19;11.93;;;9.90;;
14883;SDS011;7534;50.762;7.000;2022-08-19T00:55:51;12.10;;;10.80;;
14883;SDS011;7534;50.762;7.000;2022-08-19T00:58:24;11.13;;;10.10;;
14883;SDS011;7534;50.762;7.000;2022-08-19T01:00:55;9.98;;;9.07;;
14883;SDS011;7534;50.762;7.000;2022-08-19T01:03:21;10.20;;;9.40;;
14883;SDS011;7534;50.762;7.000;2022-08-19T01:05:49;10.70;;;9.65;;
14883;SDS011;7534;50.762;7.000;2022-08-19T01:08:19;11.18;;;10.07;;
14883;SDS011;7534;50.762;7.000;2022-08-19T01:10:47;11.60;;;10.48;;
14883;SDS011;7534;50.762;7.000;2022-08-19T01:13:19;12.07;;;10.95;;
14883;SDS011;7534;50.762;7.000;2022-08-19T01:16:03;12.23;;;11.13;;
14883;SDS011;7534;50.762;7.000;2022-08-19T01:18:35;12.05;;;10.68;;
14883;SDS011;7534;50.762;7.000;2022-08-19T01:21:12;13.30;;;12.05;;
14883;SDS011;7534;50.762;7.000;2022-08-19T01:24:07;12.35;;;11.05;;
14883;SDS011;7534;50.762;7.000;2022-08-19T01:26:34;11.45;;;10.35;;
14883;SDS011;7534;50.762;7.000;2022-08-19T01:29:06;12.00;;;10.93;;
14883;SDS011;7534;50.762;7.000;2022-08-19T01:31:33;11.38;;;10.38;;
14883;SDS011;7534;50.762;7.000;2022-08-19T01:34:00;11.55;;;10.45;;
14883;SDS011;7534;50.762;7.000;2022-08-19T01:36:32;12.85;;;11.65;;
14883;SDS011;7534;50.762;7.000;2022-08-19T01:39:07;11.90;;;10.80;;
14883;SDS011;7534;50.762;7.000;2022-08-19T01:41:36;12.20;;;11.10;;
14883;SDS011;7534;50.762;7.000;2022-08-19T01:44:03;12.82;;;11.55;;
14883;SDS011;7534;50.762;7.000;2022-08-19T01:46:32;12.57;;;11.38;;
14883;SDS011;7534;50.762;7.000;2022-08-19T01:48:58;11.93;;;10.90;;
14883;SDS011;7534;50.762;7.000;2022-08-19T01:51:24;13.35;;;12.13;;
14883;SDS011;7534;50.762;7.000;2022-08-19T01:53:50;13.07;;;11.73;;
14883;SDS011;7534;50.762;7.000;2022-08-19T01:56:17;13.27;;;11.65;;
14883;SDS011;7534;50.762;7.000;2022-08-19T01:58:49;13.18;;;11.88;;
14883;SDS011;7534;50.762;7.000;2022-08-19T02:01:22;14.15;;;12.75;;
14883;SDS011;7534;50.762;7.000;2022-08-19T02:03:48;14.15;;;12.75;;
14883;SDS011;7534;50.762;7.000;2022-08-19T02:06:14;13.35;;;12.15;;
14883;SDS011;7534;50.762;7.000;2022-08-19T02:08:42;14.05;;;12.65;;
14883;SDS011;7534;50.762;7.000;2022-08-19T02:11:17;13.60;;;12.30;;
14883;SDS011;7534;50.762;7.000;2022-08-19T02:13:51;13.23;;;12.05;;
14883;SDS011;7534;50.762;7.000;2022-08-19T02:16:19;12.80;;;11.60;;
14883;SDS011;7534;50.762;7.000;2022-08-19T02:18:47;12.93;;;11.65;;
14883;SDS011;7534;50.762;7.000;2022-08-19T02:21:13;13.15;;;11.82;;
14883;SDS011;7534;50.762;7.000;2022-08-19T02:23:44;13.40;;;12.10;;
14883;SDS011;7534;50.762;7.000;2022-08-19T02:26:11;13.48;;;12.18;;
14883;SDS011;7534;50.762;7.000;2022-08-19T02:28:38;14.38;;;12.93;;
14883;SDS011;7534;50.762;7.000;2022-08-19T02:31:08;14.38;;;13.02;;
14883;SDS011;7534;50.762;7.000;2022-08-19T02:33:36;16.42;;;13.70;;
14883;SDS011;7534;50.762;7.000;2022-08-19T02:36:03;15.93;;;13.77;;
14883;SDS011;7534;50.762;7.000;2022-08-19T02:38:31;14.98;;;13.57;;
14883;SDS011;7534;50.762;7.000;2022-08-19T02:40:58;15.23;;;13.73;;
14883;SDS011;7534;50.762;7.000;2022-08-19T02:43:28;15.40;;;13.80;;
14883;SDS011;7534;50.762;7.000;2022-08-19T02:45:57;15.38;;;13.85;;
14883;SDS011;7534;50.762;7.000;2022-08-19T02:48:23;16.20;;;14.70;;
14883;SDS011;7534;50.762;7.000;2022-08-19T02:50:51;17.15;;;15.55;;
14883;SDS011;7534;50.762;7.000;2022-08-19T02:53:20;16.90;;;15.23;;
14883;SDS011;7534;50.762;7.000;2022-08-19T02:55:51;17.45;;;15.75;;
14883;SDS011;7534;50.762;7.000;2022-08-19T02:58:19;17.33;;;15.57;;
14883;SDS011;7534;50.762;7.000;2022-08-19T03:00:47;17.55;;;15.70;;
14883;SDS011;7534;50.762;7.000;2022-08-19T03:03:20;16.48;;;14.88;;
14883;SDS011;7534;50.762;7.000;2022-08-19T03:05:46;15.45;;;13.95;;
14883;SDS011;7534;50.762;7.000;2022-08-19T03:08:12;17.65;;;15.90;;
14883;SDS011;7534;50.762;7.000;2022-08-19T03:10:40;17.20;;;15.50;;
14883;SDS011;7534;50.762;7.000;2022-08-19T03:13:12;17.73;;;15.88;;
14883;SDS011;7534;50.762;7.000;2022-08-19T03:15:42;16.75;;;15.10;;
14883;SDS011;7534;50.762;7.000;2022-08-19T03:18:13;18.52;;;16.73;;
14883;SDS011;7534;50.762;7.000;2022-08-19T03:20:44;19.02;;;17.13;;
14883;SDS011;7534;50.762;7.000;2022-08-19T03:23:21;18.77;;;16.70;;
14883;SDS011;7534;50.762;7.000;2022-08-19T03:25:48;19.25;;;17.38;;
14883;SDS011;7534;50.762;7.000;2022-08-19T03:28:17;19.48;;;17.52;;
14883;SDS011;7534;50.762;7.000;2022-08-19T03:30:43;19.88;;;16.67;;
14883;SDS011;7534;50.762;7.000;2022-08-19T03:33:23;19.80;;;17.80;;
14883;SDS011;7534;50.762;7.000;2022-08-19T03:35:59;19.83;;;17.85;;
14883;SDS011;7534;50.762;7.000;2022-08-19T03:38:27;19.65;;;17.65;;
14883;SDS011;7534;50.762;7.000;2022-08-19T03:40:53;20.90;;;18.35;;
14883;SDS011;7534;50.762;7.000;2022-08-19T03:43:19;20.92;;;18.67;;
14883;SDS011;7534;50.762;7.000;2022-08-19T03:45:45;22.65;;;19.25;;
14883;SDS011;7534;50.762;7.000;2022-08-19T03:48:10;20.98;;;18.88;;
14883;SDS011;7534;50.762;7.000;2022-08-19T03:50:39;20.83;;;18.58;;
14883;SDS011;7534;50.762;7.000;2022-08-19T03:53:05;20.05;;;17.65;;
14883;SDS011;7534;50.762;7.000;2022-08-19T03:55:33;20.83;;;18.65;;
14883;SDS011;7534;50.762;7.000;2022-08-19T03:58:05;19.77;;;17.77;;
14883;SDS011;7534;50.762;7.000;2022-08-19T04:00:31;19.60;;;17.70;;
14883;SDS011;7534;50.762;7.000;2022-08-19T04:02:58;21.30;;;19.10;;
14883;SDS011;7534;50.762;7.000;2022-08-19T04:05:24;20.98;;;18.83;;
14883;SDS011;7534;50.762;7.000;2022-08-19T04:10:22;22.30;;;19.90;;
14883;SDS011;7534;50.762;7.000;2022-08-19T04:12:48;23.17;;;20.55;;
14883;SDS011;7534;50.762;7.000;2022-08-19T04:15:14;22.95;;;20.58;;
14883;SDS011;7534;50.762;7.000;2022-08-19T04:17:40;23.42;;;20.98;;
14883;SDS011;7534;50.762;7.000;2022-08-19T04:20:06;23.40;;;20.80;;
14883;SDS011;7534;50.762;7.000;2022-08-19T04:22:32;24.33;;;21.73;;
14883;SDS011;7534;50.762;7.000;2022-08-19T04:24:57;25.17;;;21.23;;
14883;SDS011;7534;50.762;7.000;2022-08-19T04:27:23;25.33;;;22.02;;
14883;SDS011;7534;50.762;7.000;2022-08-19T04:29:49;24.50;;;21.90;;
14883;SDS011;7534;50.762;7.000;2022-08-19T04:32:14;24.50;;;21.90;;
14883;SDS011;7534;50.762;7.000;2022-08-19T04:34:40;28.13;;;23.08;;
14883;SDS011;7534;50.762;7.000;2022-08-19T04:37:07;23.60;;;21.27;;
14883;SDS011;7534;50.762;7.000;2022-08-19T04:39:36;24.25;;;21.65;;
14883;SDS011;7534;50.762;7.000;2022-08-19T04:42:21;25.45;;;21.23;;
14883;SDS011;7534;50.762;7.000;2022-08-19T04:45:09;23.52;;;20.98;;
14883;SDS011;7534;50.762;7.000;2022-08-19T04:47:42;23.63;;;21.13;;
14883;SDS011;7534;50.762;7.000;2022-08-19T04:50:09;24.08;;;21.50;;
14883;SDS011;7534;50.762;7.000;2022-08-19T04:52:37;23.15;;;20.85;;
14883;SDS011;7534;50.762;7.000;2022-08-19T04:55:07;22.42;;;20.15;;
14883;SDS011;7534;50.762;7.000;2022-08-19T04:57:35;21.92;;;19.65;;
14883;SDS011;7534;50.762;7.000;2022-08-19T05:00:05;23.98;;;21.45;;
14883;SDS011;7534;50.762;7.000;2022-08-19T05:02:36;24.20;;;21.63;;
14883;SDS011;7534;50.762;7.000;2022-08-19T05:05:03;23.33;;;21.05;;
14883;SDS011;7534;50.762;7.000;2022-08-19T05:07:31;23.85;;;21.00;;
14883;SDS011;7534;50.762;7.000;2022-08-19T05:09:56;23.63;;;21.13;;
14883;SDS011;7534;50.762;7.000;2022-08-19T05:12:22;24.55;;;21.90;;
14883;SDS011;7534;50.762;7.000;2022-08-19T05:14:48;25.55;;;22.88;;
14883;SDS011;7534;50.762;7.000;2022-08-19T05:17:14;24.63;;;21.98;;
14883;SDS011;7534;50.762;7.000;2022-08-19T05:19:40;24.52;;;21.95;;
14883;SDS011;7534;50.762;7.000;2022-08-19T05:22:24;24.83;;;22.23;;
14883;SDS011;7534;50.762;7.000;2022-08-19T05:25:05;25.70;;;22.98;;
14883;SDS011;7534;50.762;7.000;2022-08-19T05:27:36;25.35;;;22.20;;
14883;SDS011;7534;50.762;7.000;2022-08-19T05:30:03;26.73;;;23.90;;
14883;SDS011;7534;50.762;7.000;2022-08-19T05:32:30;26.02;;;22.90;;
14883;SDS011;7534;50.762;7.000;2022-08-19T05:34:56;23.50;;;21.15;;
14883;SDS011;7534;50.762;7.000;2022-08-19T05:37:22;24.30;;;21.70;;
14883;SDS011;7534;50.762;7.000;2022-08-19T05:39:48;23.70;;;21.13;;
14883;SDS011;7534;50.762;7.000;2022-08-19T05:42:14;24.02;;;21.63;;
14883;SDS011;7534;50.762;7.000;2022-08-19T05:44:42;24.60;;;22.00;;
14883;SDS011;7534;50.762;7.000;2022-08-19T05:47:09;25.17;;;22.58;;
14883;SDS011;7534;50.762;7.000;2022-08-19T05:49:37;25.17;;;22.50;;
14883;SDS011;7534;50.762;7.000;2022-08-19T05:52:05;24.05;;;21.55;;
14883;SDS011;7534;50.762;7.000;2022-08-19T05:54:36;23.88;;;21.35;;
14883;SDS011;7534;50.762;7.000;2022-08-19T05:57:06;24.88;;;22.42;;
14883;SDS011;7534;50.762;7.000;2022-08-19T05:59:33;25.90;;;23.10;;
14883;SDS011;7534;50.762;7.000;2022-08-19T06:02:02;26.02;;;23.27;;
14883;SDS011;7534;50.762;7.000;2022-08-19T06:04:29;26.40;;;23.63;;
14883;SDS011;7534;50.762;7.000;2022-08-19T06:06:55;25.25;;;22.55;;
14883;SDS011;7534;50.762;7.000;2022-08-19T06:09:21;28.38;;;25.25;;
14883;SDS011;7534;50.762;7.000;2022-08-19T06:11:50;27.42;;;24.10;;
14883;SDS011;7534;50.762;7.000;2022-08-19T06:14:24;26.65;;;23.92;;
14883;SDS011;7534;50.762;7.000;2022-08-19T06:16:55;27.75;;;24.67;;
14883;SDS011;7534;50.762;7.000;2022-08-19T06:19:23;32.60;;;29.20;;
14883;SDS011;7534;50.762;7.000;2022-08-19T06:21:53;33.42;;;30.23;;
14883;SDS011;7534;50.762;7.000;2022-08-19T06:24:23;29.07;;;25.97;;
14883;SDS011;7534;50.762;7.000;2022-08-19T06:26:51;27.55;;;24.35;;
14883;SDS011;7534;50.762;7.000;2022-08-19T06:29:20;26.90;;;24.00;;
14883;SDS011;7534;50.762;7.000;2022-08-19T06:31:51;28.20;;;25.15;;
14883;SDS011;7534;50.762;7.000;2022-08-19T06:34:21;28.73;;;25.30;;
14883;SDS011;7534;50.762;7.000;2022-08-19T06:36:48;27.77;;;24.75;;
14883;SDS011;7534;50.762;7.000;2022-08-19T06:39:17;26.67;;;23.92;;
14883;SDS011;7534;50.762;7.000;2022-08-19T06:41:49;30.02;;;24.63;;
14883;SDS011;7534;50.762;7.000;2022-08-19T06:44:19;27.52;;;24.15;;
14883;SDS011;7534;50.762;7.000;2022-08-19T06:46:48;28.65;;;24.70;;
14883;SDS011;7534;50.762;7.000;2022-08-19T06:49:14;30.15;;;25.55;;
14883;SDS011;7534;50.762;7.000;2022-08-19T06:51:42;27.67;;;24.60;;
14883;SDS011;7534;50.762;7.000;2022-08-19T06:54:12;28.20;;;24.67;;
14883;SDS011;7534;50.762;7.000;2022-08-19T06:56:39;25.40;;;22.75;;
14883;SDS011;7534;50.762;7.000;2022-08-19T06:59:08;25.30;;;22.60;;
14883;SDS011;7534;50.762;7.000;2022-08-19T07:01:44;25.10;;;22.45;;
14883;SDS011;7534;50.762;7.000;2022-08-19T07:04:18;25.00;;;22.40;;
14883;SDS011;7534;50.762;7.000;2022-08-19T07:06:47;24.85;;;22.15;;
14883;SDS011;7534;50.762;7.000;2022-08-19T07:09:16;21.92;;;19.65;;
14883;SDS011;7534;50.762;7.000;2022-08-19T07:11:46;23.63;;;21.23;;
14883;SDS011;7534;50.762;7.000;2022-08-19T07:14:15;24.80;;;22.20;;
14883;SDS011;7534;50.762;7.000;2022-08-19T07:16:46;24.60;;;21.17;;
14883;SDS011;7534;50.762;7.000;2022-08-19T07:19:15;25.50;;;21.92;;
14883;SDS011;7534;50.762;7.000;2022-08-19T07:21:42;22.58;;;20.27;;
14883;SDS011;7534;50.762;7.000;2022-08-19T07:24:08;25.27;;;22.67;;
14883;SDS011;7534;50.762;7.000;2022-08-19T07:26:37;27.63;;;24.93;;
14883;SDS011;7534;50.762;7.000;2022-08-19T07:29:07;27.95;;;25.15;;
14883;SDS011;7534;50.762;7.000;2022-08-19T07:31:34;24.60;;;22.20;;
14883;SDS011;7534;50.762;7.000;2022-08-19T07:34:02;23.80;;;21.02;;
14883;SDS011;7534;50.762;7.000;2022-08-19T07:36:34;22.77;;;20.50;;
14883;SDS011;7534;50.762;7.000;2022-08-19T07:39:06;20.13;;;18.13;;
14883;SDS011;7534;50.762;7.000;2022-08-19T07:41:36;21.00;;;18.48;;
14883;SDS011;7534;50.762;7.000;2022-08-19T07:44:03;18.42;;;16.52;;
14883;SDS011;7534;50.762;7.000;2022-08-19T07:46:33;17.33;;;15.63;;
14883;SDS011;7534;50.762;7.000;2022-08-19T07:49:03;16.20;;;14.70;;
14883;SDS011;7534;50.762;7.000;2022-08-19T07:51:32;20.05;;;16.73;;
14883;SDS011;7534;50.762;7.000;2022-08-19T07:53:59;17.17;;;15.48;;
14883;SDS011;7534;50.762;7.000;2022-08-19T07:56:25;17.15;;;15.02;;
14883;SDS011;7534;50.762;7.000;2022-08-19T07:58:51;16.98;;;15.18;;
14883;SDS011;7534;50.762;7.000;2022-08-19T08:01:19;14.60;;;13.30;;
14883;SDS011;7534;50.762;7.000;2022-08-19T08:03:49;14.00;;;12.65;;
14883;SDS011;7534;50.762;7.000;2022-08-19T08:06:36;14.65;;;13.23;;
14883;SDS011;7534;50.762;7.000;2022-08-19T08:09:23;15.30;;;13.80;;
14883;SDS011;7534;50.762;7.000;2022-08-19T08:12:04;13.73;;;12.25;;
14883;SDS011;7534;50.762;7.000;2022-08-19T08:14:50;15.63;;;14.07;;
14883;SDS011;7534;50.762;7.000;2022-08-19T08:17:20;15.13;;;13.68;;
14883;SDS011;7534;50.762;7.000;2022-08-19T08:19:51;17.35;;;15.75;;
14883;SDS011;7534;50.762;7.000;2022-08-19T08:22:18;17.33;;;15.65;;
14883;SDS011;7534;50.762;7.000;2022-08-19T08:25:07;17.13;;;15.50;;
14883;SDS011;7534;50.762;7.000;2022-08-19T08:27:39;17.08;;;15.27;;
14883;SDS011;7534;50.762;7.000;2022-08-19T08:30:08;17.27;;;15.48;;
14883;SDS011;7534;50.762;7.000;2022-08-19T08:32:41;22.23;;;20.13;;
14883;SDS011;7534;50.762;7.000;2022-08-19T08:35:09;21.75;;;19.58;;
14883;SDS011;7534;50.762;7.000;2022-08-19T08:37:38;20.35;;;18.35;;
14883;SDS011;7534;50.762;7.000;2022-08-19T08:40:28;22.15;;;19.98;;
14883;SDS011;7534;50.762;7.000;2022-08-19T08:45:36;22.85;;;20.45;;
14883;SDS011;7534;50.762;7.000;2022-08-19T08:48:19;23.95;;;21.52;;
14883;SDS011;7534;50.762;7.000;2022-08-19T08:50:56;27.25;;;24.45;;
14883;SDS011;7534;50.762;7.000;2022-08-19T08:53:23;29.08;;;25.95;;
14883;SDS011;7534;50.762;7.000;2022-08-19T08:55:51;27.58;;;24.65;;
14883;SDS011;7534;50.762;7.000;2022-08-19T08:58:19;27.10;;;24.30;;
14883;SDS011;7534;50.762;7.000;2022-08-19T09:00:54;27.77;;;24.88;;
14883;SDS011;7534;50.762;7.000;2022-08-19T09:03:23;29.90;;;26.95;;
14883;SDS011;7534;50.762;7.000;2022-08-19T09:05:59;27.52;;;24.63;;
14883;SDS011;7534;50.762;7.000;2022-08-19T09:11:10;27.73;;;24.80;;
14883;SDS011;7534;50.762;7.000;2022-08-19T09:14:10;26.80;;;23.80;;
14883;SDS011;7534;50.762;7.000;2022-08-19T09:17:12;25.88;;;23.38;;
14883;SDS011;7534;50.762;7.000;2022-08-19T09:19:53;28.50;;;25.77;;
14883;SDS011;7534;50.762;7.000;2022-08-19T09:22:29;26.98;;;24.38;;
14883;SDS011;7534;50.762;7.000;2022-08-19T09:24:55;27.95;;;25.33;;
14883;SDS011;7534;50.762;7.000;2022-08-19T09:27:21;28.20;;;25.40;;
14883;SDS011;7534;50.762;7.000;2022-08-19T09:29:49;25.20;;;22.77;;
14883;SDS011;7534;50.762;7.000;2022-08-19T09:32:16;25.95;;;23.35;;
14883;SDS011;7534;50.762;7.000;2022-08-19T09:34:43;23.77;;;21.50;;
14883;SDS011;7534;50.762;7.000;2022-08-19T09:37:09;24.42;;;21.92;;
14883;SDS011;7534;50.762;7.000;2022-08-19T09:39:35;20.60;;;18.67;;
14883;SDS011;7534;50.762;7.000;2022-08-19T09:42:02;19.90;;;17.90;;
14883;SDS011;7534;50.762;7.000;2022-08-19T09:44:28;18.98;;;17.05;;
14883;SDS011;7534;50.762;7.000;2022-08-19T09:46:54;17.20;;;15.57;;
14883;SDS011;7534;50.762;7.000;2022-08-19T09:49:20;16.95;;;15.35;;
14883;SDS011;7534;50.762;7.000;2022-08-19T09:51:50;15.75;;;14.25;;
14883;SDS011;7534;50.762;7.000;2022-08-19T09:54:20;14.63;;;13.32;;
14883;SDS011;7534;50.762;7.000;2022-08-19T09:56:45;16.90;;;15.43;;
14883;SDS011;7534;50.762;7.000;2022-08-19T09:59:11;17.88;;;16.17;;
14883;SDS011;7534;50.762;7.000;2022-08-19T10:01:37;15.88;;;14.48;;
14883;SDS011;7534;50.762;7.000;2022-08-19T10:04:03;16.10;;;14.70;;
14883;SDS011;7534;50.762;7.000;2022-08-19T10:06:33;16.40;;;14.90;;
14883;SDS011;7534;50.762;7.000;2022-08-19T10:09:03;14.48;;;13.18;;
14883;SDS011;7534;50.762;7.000;2022-08-19T10:11:32;14.68;;;13.32;;
14883;SDS011;7534;50.762;7.000;2022-08-19T10:13:59;14.40;;;13.10;;
14883;SDS011;7534;50.762;7.000;2022-08-19T10:16:27;13.50;;;12.30;;
14883;SDS011;7534;50.762;7.000;2022-08-19T10:18:53;14.20;;;13.00;;
14883;SDS011;7534;50.762;7.000;2022-08-19T10:21:24;11.95;;;10.80;;
14883;SDS011;7534;50.762;7.000;2022-08-19T10:23:55;13.75;;;12.35;;
14883;SDS011;7534;50.762;7.000;2022-08-19T10:26:27;11.55;;;10.55;;
14883;SDS011;7534;50.762;7.000;2022-08-19T10:28:56;13.23;;;12.05;;
14883;SDS011;7534;50.762;7.000;2022-08-19T10:31:24;12.18;;;10.43;;
14883;SDS011;7534;50.762;7.000;2022-08-19T10:33:54;11.80;;;10.65;;
14883;SDS011;7534;50.762;7.000;2022-08-19T10:36:23;10.73;;;9.82;;
14883;SDS011;7534;50.762;7.000;2022-08-19T10:39:04;11.73;;;10.57;;
14883;SDS011;7534;50.762;7.000;2022-08-19T10:41:35;11.27;;;10.27;;
14883;SDS011;7534;50.762;7.000;2022-08-19T10:44:04;11.32;;;10.23;;
14883;SDS011;7534;50.762;7.000;2022-08-19T10:46:36;11.20;;;10.13;;
14883;SDS011;7534;50.762;7.000;2022-08-19T10:49:07;10.35;;;9.40;;
14883;SDS011;7534;50.762;7.000;2022-08-19T10:51:35;11.32;;;10.23;;
14883;SDS011;7534;50.762;7.000;2022-08-19T10:54:22;11.05;;;9.95;;
14883;SDS011;7534;50.762;7.000;2022-08-19T10:57:08;9.68;;;8.77;;
14883;SDS011;7534;50.762;7.000;2022-08-19T10:59:35;10.57;;;9.60;;
14883;SDS011;7534;50.762;7.000;2022-08-19T11:02:01;9.88;;;8.98;;
14883;SDS011;7534;50.762;7.000;2022-08-19T11:04:30;11.45;;;10.35;;
14883;SDS011;7534;50.762;7.000;2022-08-19T11:06:57;10.18;;;9.18;;
14883;SDS011;7534;50.762;7.000;2022-08-19T11:09:23;10.52;;;9.63;;
14883;SDS011;7534;50.762;7.000;2022-08-19T11:11:54;9.32;;;8.43;;
14883;SDS011;7534;50.762;7.000;2022-08-19T11:14:21;10.15;;;9.25;;
14883;SDS011;7534;50.762;7.000;2022-08-19T11:16:49;10.82;;;9.77;;
14883;SDS011;7534;50.762;7.000;2022-08-19T11:19:17;11.50;;;10.30;;
14883;SDS011;7534;50.762;7.000;2022-08-19T11:21:44;10.40;;;9.50;;
14883;SDS011;7534;50.762;7.000;2022-08-19T11:24:14;10.98;;;10.02;;
14883;SDS011;7534;50.762;7.000;2022-08-19T11:26:47;11.50;;;10.43;;
14883;SDS011;7534;50.762;7.000;2022-08-19T11:29:16;12.13;;;11.02;;
14883;SDS011;7534;50.762;7.000;2022-08-19T11:31:50;11.85;;;10.60;;
14883;SDS011;7534;50.762;7.000;2022-08-19T11:34:19;11.38;;;10.38;;
14883;SDS011;7534;50.762;7.000;2022-08-19T11:36:47;12.55;;;11.43;;
14883;SDS011;7534;50.762;7.000;2022-08-19T11:39:16;10.88;;;9.98;;
14883;SDS011;7534;50.762;7.000;2022-08-19T11:41:45;11.15;;;10.25;;
14883;SDS011;7534;50.762;7.000;2022-08-19T11:44:11;11.00;;;10.10;;
14883;SDS011;7534;50.762;7.000;2022-08-19T11:46:39;11.10;;;10.20;;
14883;SDS011;7534;50.762;7.000;2022-08-19T11:49:10;9.70;;;8.90;;
14883;SDS011;7534;50.762;7.000;2022-08-19T11:51:36;10.02;;;9.10;;
14883;SDS011;7534;50.762;7.000;2022-08-19T11:54:03;13.38;;;12.27;;
14883;SDS011;7534;50.762;7.000;2022-08-19T11:56:31;13.98;;;12.65;;
14883;SDS011;7534;50.762;7.000;2022-08-19T11:58:57;13.05;;;11.95;;
14883;SDS011;7534;50.762;7.000;2022-08-19T12:01:23;13.55;;;12.35;;
14883;SDS011;7534;50.762;7.000;2022-08-19T12:03:51;13.98;;;12.77;;
14883;SDS011;7534;50.762;7.000;2022-08-19T12:06:21;12.75;;;11.65;;
14883;SDS011;7534;50.762;7.000;2022-08-19T12:08:52;14.52;;;13.23;;
14883;SDS011;7534;50.762;7.000;2022-08-19T12:11:18;12.77;;;11.57;;
14883;SDS011;7534;50.762;7.000;2022-08-19T12:13:44;13.65;;;12.45;;
14883;SDS011;7534;50.762;7.000;2022-08-19T12:16:15;15.00;;;13.70;;
14883;SDS011;7534;50.762;7.000;2022-08-19T12:18:52;14.25;;;12.77;;
14883;SDS011;7534;50.762;7.000;2022-08-19T12:21:21;13.13;;;11.82;;
14883;SDS011;7534;50.762;7.000;2022-08-19T12:23:52;14.68;;;13.30;;
14883;SDS011;7534;50.762;7.000;2022-08-19T12:26:19;15.60;;;14.10;;
14883;SDS011;7534;50.762;7.000;2022-08-19T12:28:45;15.65;;;14.25;;
14883;SDS011;7534;50.762;7.000;2022-08-19T12:31:12;14.05;;;12.65;;
14883;SDS011;7534;50.762;7.000;2022-08-19T12:33:38;15.25;;;13.70;;
14883;SDS011;7534;50.762;7.000;2022-08-19T12:36:07;16.58;;;15.00;;
14883;SDS011;7534;50.762;7.000;2022-08-19T12:38:35;16.67;;;15.07;;
14883;SDS011;7534;50.762;7.000;2022-08-19T12:41:03;14.05;;;12.88;;
14883;SDS011;7534;50.762;7.000;2022-08-19T12:43:30;13.70;;;12.50;;
14883;SDS011;7534;50.762;7.000;2022-08-19T12:45:55;13.95;;;12.68;;
14883;SDS011;7534;50.762;7.000;2022-08-19T12:48:21;14.20;;;13.00;;
14883;SDS011;7534;50.762;7.000;2022-08-19T12:50:47;12.90;;;11.60;;
14883;SDS011;7534;50.762;7.000;2022-08-19T12:53:13;12.13;;;11.05;;
14883;SDS011;7534;50.762;7.000;2022-08-19T12:55:40;11.75;;;10.75;;
14883;SDS011;7534;50.762;7.000;2022-08-19T12:58:08;9.68;;;8.77;;
14883;SDS011;7534;50.762;7.000;2022-08-19T13:00:34;8.25;;;7.55;;
14883;SDS011;7534;50.762;7.000;2022-08-19T13:03:00;10.93;;;9.82;;
14883;SDS011;7534;50.762;7.000;2022-08-19T13:05:27;9.32;;;8.52;;
14883;SDS011;7534;50.762;7.000;2022-08-19T13:07:58;11.95;;;10.30;;
14883;SDS011;7534;50.762;7.000;2022-08-19T13:10:26;10.65;;;9.75;;
14883;SDS011;7534;50.762;7.000;2022-08-19T13:13:02;11.73;;;10.65;;
14883;SDS011;7534;50.762;7.000;2022-08-19T13:15:35;11.50;;;10.38;;
14883;SDS011;7534;50.762;7.000;2022-08-19T13:18:05;10.93;;;9.88;;
14883;SDS011;7534;50.762;7.000;2022-08-19T13:20:34;12.20;;;10.95;;
14883;SDS011;7534;50.762;7.000;2022-08-19T13:23:02;12.57;;;11.38;;
14883;SDS011;7534;50.762;7.000;2022-08-19T13:25:28;10.35;;;9.38;;
14883;SDS011;7534;50.762;7.000;2022-08-19T13:27:54;11.02;;;9.90;;
14883;SDS011;7534;50.762;7.000;2022-08-19T13:30:20;11.13;;;10.00;;
14883;SDS011;7534;50.762;7.000;2022-08-19T13:33:06;11.60;;;10.50;;
14883;SDS011;7534;50.762;7.000;2022-08-19T13:35:37;10.20;;;9.30;;
14883;SDS011;7534;50.762;7.000;2022-08-19T13:38:05;12.50;;;10.07;;
14883;SDS011;7534;50.762;7.000;2022-08-19T13:40:31;11.00;;;10.00;;
14883;SDS011;7534;50.762;7.000;2022-08-19T13:42:58;9.82;;;8.93;;
14883;SDS011;7534;50.762;7.000;2022-08-19T13:45:26;8.65;;;7.95;;
14883;SDS011;7534;50.762;7.000;2022-08-19T13:47:55;8.73;;;7.93;;
14883;SDS011;7534;50.762;7.000;2022-08-19T13:50:23;9.00;;;8.20;;
14883;SDS011;7534;50.762;7.000;2022-08-19T13:52:53;10.85;;;9.75;;
14883;SDS011;7534;50.762;7.000;2022-08-19T13:55:20;9.07;;;8.25;;
14883;SDS011;7534;50.762;7.000;2022-08-19T13:57:50;10.68;;;9.57;;
14883;SDS011;7534;50.762;7.000;2022-08-19T14:00:18;12.00;;;10.10;;
14883;SDS011;7534;50.762;7.000;2022-08-19T14:02:44;11.30;;;10.20;;
14883;SDS011;7534;50.762;7.000;2022-08-19T14:05:12;12.30;;;10.90;;
14883;SDS011;7534;50.762;7.000;2022-08-19T14:07:40;9.80;;;8.90;;
14883;SDS011;7534;50.762;7.000;2022-08-19T14:10:07;10.35;;;9.27;;
14883;SDS011;7534;50.762;7.000;2022-08-19T14:12:36;10.48;;;9.52;;
14883;SDS011;7534;50.762;7.000;2022-08-19T14:15:03;10.07;;;8.90;;
14883;SDS011;7534;50.762;7.000;2022-08-19T14:17:30;9.90;;;8.85;;
14883;SDS011;7534;50.762;7.000;2022-08-19T14:20:00;9.90;;;8.48;;
14883;SDS011;7534;50.762;7.000;2022-08-19T14:22:32;9.18;;;8.23;;
14883;SDS011;7534;50.762;7.000;2022-08-19T14:25:00;9.98;;;8.15;;
14883;SDS011;7534;50.762;7.000;2022-08-19T14:27:25;8.70;;;7.93;;
14883;SDS011;7534;50.762;7.000;2022-08-19T14:29:52;9.35;;;8.45;;
14883;SDS011;7534;50.762;7.000;2022-08-19T14:32:18;8.93;;;8.10;;
14883;SDS011;7534;50.762;7.000;2022-08-19T14:34:44;10.40;;;7.78;;
14883;SDS011;7534;50.762;7.000;2022-08-19T14:37:13;8.95;;;8.15;;
14883;SDS011;7534;50.762;7.000;2022-08-19T14:39:40;9.75;;;8.85;;
14883;SDS011;7534;50.762;7.000;2022-08-19T14:42:07;9.32;;;8.43;;
14883;SDS011;7534;50.762;7.000;2022-08-19T14:44:34;9.50;;;8.60;;
14883;SDS011;7534;50.762;7.000;2022-08-19T14:47:00;9.40;;;8.45;;
14883;SDS011;7534;50.762;7.000;2022-08-19T14:49:26;9.52;;;8.00;;
14883;SDS011;7534;50.762;7.000;2022-08-19T14:51:51;8.40;;;7.65;;
14883;SDS011;7534;50.762;7.000;2022-08-19T14:54:17;8.02;;;7.20;;
14883;SDS011;7534;50.762;7.000;2022-08-19T14:56:43;7.28;;;6.57;;
14883;SDS011;7534;50.762;7.000;2022-08-19T14:59:09;7.20;;;6.57;;